KELP/ELP METAR and TAF weather

Enter ICAO airport designator
Station Type Date Time Source
KELP METAR 2022/06/26 08:51 UTC NOAA

KELP 260851Z 36016KT 10SM SCT070 BKN120 BKN180 24/13 A3013 RMK AO2 PK WND 03029/0802 SLP124 60000 T02390133 53002


Station Type Date Time Source
KELP Decoded METAR 2022/06/26 08:51 UTC NOAA

EL PASO INTERNATIONAL AIRPORT , TX, United States (KELP) 31-49N 106-23W 1197M
Jun 26, 2022 - 04:51 AM EDT / 2022.06.26 0851 UTC
Wind: from the N (360 degrees) at 18 MPH (16 KT):0
Visibility: 10 mile(s):0
Sky conditions: mostly cloudy
Temperature: 75.0 F (23.9 C)
Dew Point: 55.9 F (13.3 C)
Relative Humidity: 51%
Pressure (altimeter): 30.13 in. Hg (1020 hPa)
Pressure tendency: 0.01 inches (0.2 hPa) higher than three hours ago
ob: KELP 260851Z 36016KT 10SM SCT070 BKN120 BKN180 24/13 A3013 RMK AO2 PK WND 03029/0802 SLP124 60000 T02390133 53002
cycle: 9

Station Type Date Time Source
KELP TAF 2022/06/26 06:33 UTC NOAA

TAF KELP 260530Z 2606/2706 06008KT P6SM VCSH SCT070 BKN100
FM260800 02010KT P6SM SCT100 OVC200
FM261700 09010KT P6SM SCT100 BKN200

Example: see airport list